Time;durP1;ratioP1;P1;durP2;ratioP2;P2;SDS_P1;SDS_P2;PMS_P1;PMS_P2;Temp;Humidity;BMP_temperature;BMP_pressure;BME280_temperature;BME280_humidity;BME280_pressure;Samples;Min_cycle;Max_cycle;Signal;HPM_P1;HPM_P2
2022/09/12 00:01:26;;;;;;;6.13;4.40;;;10.50;1.00;;;10.43;100.00;98316.28;5001648;28;115233;-71
2022/09/12 00:03:57;;;;;;;6.20;4.53;;;10.50;1.00;;;10.48;100.00;98309.84;5001271;28;130389;-69
2022/09/12 00:06:29;;;;;;;6.47;4.43;;;10.50;99.90;;;10.41;100.00;98324.75;5001138;28;129812;-68
2022/09/12 00:09:01;;;;;;;6.65;4.60;;;10.50;99.90;;;10.37;100.00;98323.84;5001560;28;119782;-69
2022/09/12 00:11:30;;;;;;;6.93;4.80;;;10.50;99.90;;;10.34;100.00;98319.09;5002233;28;115124;-68
2022/09/12 00:14:01;;;;;;;8.23;5.15;;;10.50;99.90;;;10.42;100.00;98317.38;5001129;28;130043;-68
2022/09/12 00:16:34;;;;;;;7.68;5.03;;;10.50;99.90;;;10.37;100.00;98326.53;5002939;28;129102;-70
2022/09/12 00:19:03;;;;;;;6.95;4.80;;;10.50;99.90;;;10.37;100.00;98326.53;5003267;28;117711;-67
2022/09/12 00:21:35;;;;;;;8.00;5.53;;;10.50;99.90;;;10.51;100.00;98325.44;5001517;28;115440;-68
2022/09/12 00:24:03;;;;;;;6.78;5.00;;;10.50;99.90;;;10.42;100.00;98322.81;5000914;28;130571;-70
2022/09/12 00:26:32;;;;;;;7.80;5.07;;;10.50;99.90;;;10.46;100.00;98320.25;5001072;28;129550;-68
2022/09/12 00:29:01;;;;;;;7.55;5.60;;;10.50;99.90;;;10.46;100.00;98320.25;5003436;28;118088;-68
2022/09/12 00:31:31;;;;;;;7.70;5.63;;;10.40;1.00;;;10.37;100.00;98326.53;5001117;28;115479;-70
2022/09/12 00:34:00;;;;;;;8.55;5.75;;;10.50;1.00;;;10.29;100.00;98319.28;5002820;28;129167;-68
2022/09/12 00:36:30;;;;;;;8.20;5.53;;;10.40;1.00;;;10.25;100.00;98321.09;5001201;28;130141;-69
2022/09/12 00:38:59;;;;;;;7.93;5.68;;;10.40;1.00;;;10.25;100.00;98326.50;5001162;28;118815;-68
2022/09/12 00:41:31;;;;;;;7.75;5.95;;;10.40;1.00;;;10.29;100.00;98327.41;5001219;28;115572;-69
2022/09/12 00:44:04;;;;;;;7.93;5.80;;;10.40;1.00;;;10.29;100.00;98334.78;5000507;28;130434;-70
2022/09/12 00:46:39;;;;;;;8.20;5.93;;;10.30;1.00;;;10.21;100.00;98328.31;5022677;28;128115;-72
2022/09/12 00:49:14;;;;;;;8.60;6.68;;;10.30;99.90;;;10.16;100.00;98328.53;5021123;28;119287;-69
2022/09/12 00:51:49;;;;;;;11.13;6.40;;;10.30;1.00;;;10.19;100.00;98325.13;5023250;28;114831;-70
2022/09/12 00:54:23;;;;;;;10.50;7.18;;;10.30;99.90;;;10.16;100.00;98328.53;5020597;28;129927;-70
2022/09/12 00:56:56;;;;;;;8.05;5.78;;;10.30;1.00;;;10.18;100.00;98324.34;5020670;28;130065;-66
2022/09/12 00:59:29;;;;;;;8.98;6.20;;;10.30;1.00;;;10.20;100.00;98316.66;5021156;28;118929;-69
2022/09/12 01:01:59;;;;;;;8.85;6.65;;;10.30;1.00;;;10.21;100.00;98322.91;5021304;28;115114;-69
2022/09/12 01:04:28;;;;;;;9.52;6.00;;;10.30;1.00;;;10.11;100.00;98321.41;5020311;28;129707;-69
2022/09/12 01:06:58;;;;;;;7.75;6.10;;;10.30;1.00;;;10.21;100.00;98328.31;5020418;28;129974;-68
2022/09/12 01:09:27;;;;;;;9.38;6.82;;;10.30;1.00;;;10.15;100.00;98319.59;5019318;28;119022;-70
2022/09/12 01:11:56;;;;;;;9.85;6.63;;;10.20;1.00;;;10.15;100.00;98318.84;5020750;28;115967;-69
2022/09/12 01:14:25;;;;;;;8.73;6.10;;;10.20;99.90;;;10.13;100.00;98323.78;5022352;28;129920;-69
2022/09/12 01:16:54;;;;;;;8.80;6.00;;;10.20;1.00;;;10.03;100.00;98322.31;5020475;28;129842;-70
2022/09/12 01:20:06;;;;;;;8.43;6.32;;;10.20;99.90;;;9.99;100.00;98327.63;5022771;28;117293;-70
2022/09/12 01:23:01;;;;;;;8.88;6.35;;;10.20;99.90;;;9.98;100.00;98326.03;5020968;28;115209;-69
2022/09/12 01:25:36;;;;;;;8.98;6.55;;;10.20;99.90;;;10.00;100.00;98328.41;5022068;28;129410;-70
2022/09/12 01:28:33;;;;;;;8.77;6.38;;;10.20;1.00;;;9.92;100.00;98321.94;5020719;28;129777;-69
2022/09/12 01:31:09;;;;;;;10.33;7.27;;;10.10;1.00;;;9.98;100.00;98328.72;5020606;28;119053;-68
2022/09/12 01:33:53;;;;;;;10.93;7.47;;;10.20;1.00;;;10.01;100.00;98335.41;5022667;28;114089;-71
2022/09/12 01:36:48;;;;;;;10.57;6.85;;;10.20;1.00;;;10.00;100.00;98331.91;5022045;28;129911;-69
2022/09/12 01:39:30;;;;;;;9.88;7.15;;;10.10;1.00;;;9.98;100.00;98326.03;5020016;28;129814;-69
2022/09/12 01:42:15;;;;;;;9.65;7.53;;;10.10;1.00;;;9.90;100.00;98329.63;5020512;28;118882;-70
2022/09/12 01:44:53;;;;;;;9.88;7.07;;;10.10;1.00;;;9.97;100.00;98338.00;5026584;27;115041;-68
2022/09/12 01:47:31;;;;;;;9.27;7.05;;;10.10;1.00;;;9.97;100.00;98340.72;5040621;27;129913;-70
2022/09/12 01:50:06;;;;;;;10.48;7.68;;;10.10;1.00;;;9.98;100.00;98341.50;5040541;27;129696;-69
2022/09/12 01:52:44;;;;;;;10.25;7.45;;;10.10;1.00;;;9.99;100.00;98343.09;5039491;27;119447;-69
2022/09/12 01:55:18;;;;;;;22.55;8.85;;;10.10;1.00;;;10.01;100.00;98341.59;5040937;27;115343;-70
2022/09/12 01:57:54;;;;;;;9.90;7.47;;;10.10;1.00;;;9.96;100.00;98331.00;5040193;27;129925;-68
2022/09/12 02:00:23;;;;;;;10.80;7.07;;;10.10;1.00;;;9.95;100.00;98340.25;5040186;27;129457;-70
2022/09/12 02:03:01;;;;;;;8.25;6.45;;;10.10;1.00;;;10.01;100.00;98340.81;5040453;27;118821;-70
2022/09/12 02:05:35;;;;;;;11.38;7.28;;;10.10;1.00;;;9.94;100.00;98335.97;5042284;27;115671;-70
2022/09/12 02:08:09;;;;;;;10.82;7.28;;;10.10;1.00;;;9.97;100.00;98335.28;5040207;27;130546;-69
2022/09/12 02:10:45;;;;;;;9.43;7.28;;;10.00;1.00;;;9.88;100.00;98348.16;5043627;27;129820;-69
2022/09/12 02:13:20;;;;;;;9.85;7.55;;;10.00;1.00;;;9.73;100.00;98348.78;5044011;27;119073;-71
2022/09/12 02:15:57;;;;;;;10.80;7.93;;;10.00;1.00;;;9.70;100.00;98351.00;5043950;27;115572;-72
2022/09/12 02:18:29;;;;;;;11.00;7.95;;;9.90;1.00;;;9.69;100.00;98351.34;5043805;27;129819;-70
2022/09/12 02:20:59;;;;;;;10.30;7.85;;;9.90;1.00;;;9.75;100.00;98349.22;5043777;27;129396;-70
2022/09/12 02:23:31;;;;;;;11.77;8.13;;;10.00;1.00;;;9.82;100.00;98349.47;5043644;27;119144;-70
2022/09/12 02:26:09;;;;;;;11.82;7.80;;;10.00;1.00;;;9.86;100.00;98350.38;5043673;27;115105;-69
2022/09/12 02:28:42;;;;;;;11.75;7.60;;;10.00;1.00;;;9.89;100.00;98355.13;5043142;27;129709;-69
2022/09/12 02:31:21;;;;;;;10.48;7.32;;;10.00;1.00;;;9.88;100.00;98356.28;5043270;27;129562;-70
2022/09/12 02:34:07;;;;;;;13.48;8.27;;;9.90;1.00;;;9.90;100.00;98356.72;5043464;27;119610;-68
2022/09/12 02:36:46;;;;;;;12.38;8.40;;;9.90;1.00;;;9.89;100.00;98357.84;5043859;27;115189;-70
2022/09/12 02:39:18;;;;;;;11.48;7.68;;;9.90;1.00;;;9.83;100.00;98351.03;5042949;27;129953;-71
2022/09/12 02:41:47;;;;;;;10.45;7.57;;;9.90;1.00;;;9.70;100.00;98359.13;5044753;27;129133;-69
2022/09/12 02:44:16;;;;;;;11.93;7.43;;;9.90;1.00;;;9.72;100.00;98361.50;5042953;27;118747;-68
2022/09/12 02:46:50;;;;;;;11.15;7.90;;;9.90;1.00;;;9.74;100.00;98358.47;5043518;27;115660;-69
2022/09/12 02:49:20;;;;;;;10.50;7.35;;;9.90;1.00;;;9.71;100.00;98366.16;5045149;27;129543;-70
2022/09/12 02:51:50;;;;;;;11.60;7.32;;;9.90;1.00;;;9.65;100.00;98367.47;5042698;27;129456;-69
2022/09/12 02:54:20;;;;;;;11.77;7.95;;;9.80;1.00;;;9.74;100.00;98363.88;5042144;27;118853;-70
2022/09/12 02:56:49;;;;;;;11.30;7.78;;;9.90;1.00;;;9.76;100.00;98362.44;5043172;27;115965;-69
2022/09/12 02:59:21;;;;;;;11.40;7.35;;;9.90;1.00;;;9.75;100.00;98366.25;5044580;27;129786;-66
2022/09/12 03:02:12;;;;;;;11.15;7.00;;;9.90;1.00;;;9.81;100.00;98362.22;5042352;27;129728;-70
2022/09/12 03:05:13;;;;;;;11.35;7.45;;;9.90;1.00;;;9.86;100.00;98361.22;5042815;27;119223;-70
2022/09/12 03:08:23;;;;;;;10.43;7.35;;;9.90;1.00;;;9.82;100.00;98360.31;5043069;27;115049;-67
2022/09/12 03:11:22;;;;;;;10.40;7.30;;;9.90;1.00;;;9.83;100.00;98361.88;4997648;27;129635;-70
2022/09/12 03:14:03;;;;;;;10.80;6.63;;;9.90;1.00;;;9.81;100.00;98364.16;5042624;27;129783;-70
2022/09/12 03:16:42;;;;;;;9.90;6.72;;;9.90;1.00;;;9.80;100.00;98373.38;5042699;27;119354;-68
2022/09/12 03:19:24;;;;;;;10.68;6.60;;;9.90;1.00;;;9.66;100.00;98369.06;5042630;27;114937;-67
2022/09/12 03:22:04;;;;;;;9.35;6.70;;;9.80;1.00;;;9.61;100.00;98371.97;5044237;27;129906;-70
2022/09/12 03:24:37;;;;;;;9.68;6.15;;;9.80;1.00;;;9.61;100.00;98377.38;5042219;27;129648;-67
2022/09/12 03:27:13;;;;;;;10.80;6.85;;;9.80;1.00;;;9.55;100.00;98373.28;5042662;27;118912;-73
2022/09/12 03:29:43;;;;;;;10.43;6.70;;;9.80;1.00;;;9.57;100.00;98376.47;5044412;27;114020;-67
2022/09/12 03:32:12;;;;;;;10.50;6.90;;;9.80;1.00;;;9.52;100.00;98376.66;5042233;27;130038;-68
2022/09/12 03:34:40;;;;;;;11.13;7.40;;;9.80;1.00;;;9.57;100.00;98370.25;5042190;27;130044;-65
2022/09/12 03:37:10;;;;;;;10.68;6.93;;;9.70;1.00;;;9.65;100.00;98381.03;5042461;27;118930;-73
2022/09/12 03:39:38;;;;;;;13.10;7.05;;;9.80;1.00;;;9.71;100.00;98387.03;5055918;27;114987;-66
2022/09/12 03:42:07;;;;;;;11.73;7.97;;;9.80;1.00;;;9.78;100.00;98381.06;5062376;27;129860;-68
2022/09/12 03:44:35;;;;;;;11.23;7.43;;;9.80;1.00;;;9.79;100.00;98394.28;5061541;27;129229;-71
2022/09/12 03:47:04;;;;;;;11.25;7.32;;;9.80;1.00;;;9.56;100.00;98385.72;5062339;27;119167;-68
2022/09/12 03:49:33;;;;;;;12.30;7.15;;;9.70;1.00;;;9.54;100.00;98387.97;5062254;27;116041;-65
2022/09/12 03:52:01;;;;;;;10.77;7.60;;;9.70;1.00;;;9.50;100.00;98381.63;5061972;27;130536;-67
2022/09/12 03:54:31;;;;;;;12.05;7.78;;;9.70;1.00;;;9.55;100.00;98384.13;5046063;27;129302;-68
2022/09/12 03:57:00;;;;;;;11.20;7.78;;;9.70;1.00;;;9.62;100.00;98389.81;5062452;27;119269;-67
2022/09/12 03:59:28;;;;;;;11.85;7.88;;;9.70;1.00;;;9.68;100.00;98388.47;5062221;27;114656;-68
2022/09/12 04:01:57;;;;;;;12.07;7.85;;;9.70;1.00;;;9.76;100.00;98388.75;5046756;27;130271;-71
2022/09/12 04:04:25;;;;;;;12.32;8.02;;;9.80;1.00;;;9.76;100.00;98392.25;5043034;27;129942;-68
2022/09/12 04:06:54;;;;;;;11.77;7.95;;;9.70;1.00;;;9.65;100.00;98399.97;5062262;27;118754;-70
2022/09/12 04:09:23;;;;;;;12.88;8.60;;;9.70;1.00;;;9.67;100.00;98415.91;5062288;27;115678;-69
2022/09/12 04:11:54;;;;;;;13.57;8.07;;;9.70;1.00;;;9.65;100.00;98405.41;5061579;27;130567;-69
2022/09/12 04:14:22;;;;;;;10.43;7.03;;;9.70;1.00;;;9.60;100.00;98408.31;5061849;27;129383;-68
2022/09/12 04:16:51;;;;;;;11.07;7.10;;;9.70;1.00;;;9.55;100.00;98408.50;5062459;27;118534;-69
2022/09/12 04:19:19;;;;;;;10.88;7.35;;;9.70;1.00;;;9.58;100.00;98410.53;5055815;27;115096;-68
2022/09/12 04:21:48;;;;;;;13.48;7.35;;;9.70;1.00;;;9.59;100.00;98419.47;5041283;27;130088;-66
2022/09/12 04:24:16;;;;;;;9.98;6.60;;;9.70;1.00;;;9.55;100.00;98411.22;5041228;27;129907;-68
2022/09/12 04:26:45;;;;;;;11.93;7.60;;;9.70;1.00;;;9.52;100.00;98414.56;5041471;27;119569;-66
2022/09/12 04:29:15;;;;;;;13.30;7.70;;;9.70;1.00;;;9.48;100.00;98414.44;5041927;27;115768;-68
2022/09/12 04:31:44;;;;;;;11.15;7.03;;;9.60;1.00;;;9.49;100.00;98424.16;5038981;27;129996;-69
2022/09/12 04:34:13;;;;;;;13.75;7.93;;;9.70;1.00;;;9.54;100.00;98426.69;5048289;27;129884;-67
2022/09/12 04:36:42;;;;;;;11.73;8.23;;;9.70;1.00;;;9.68;100.00;98439.94;5039766;27;118833;-69
2022/09/12 04:39:11;;;;;;;12.77;8.55;;;9.70;1.00;;;9.62;100.00;98435.84;5042619;27;114574;-70
2022/09/12 04:41:41;;;;;;;11.63;8.75;;;9.70;1.00;;;9.62;100.00;98438.56;5060961;27;130453;-68
2022/09/12 04:44:14;;;;;;;13.40;8.48;;;9.70;1.00;;;9.62;100.00;98438.56;5061116;27;129295;-69
2022/09/12 04:46:46;;;;;;;11.90;8.18;;;9.70;1.00;;;9.69;100.00;98433.41;5060216;27;118967;-67
2022/09/12 04:49:18;;;;;;;14.90;9.15;;;9.70;1.00;;;9.71;100.00;98436.59;5061100;27;115498;-71
2022/09/12 04:51:47;;;;;;;13.73;8.23;;;9.70;1.00;;;9.70;100.00;98440.41;5042094;27;129588;-72
2022/09/12 04:54:18;;;;;;;12.02;7.97;;;9.70;1.00;;;9.71;100.00;98444.72;5041245;27;129540;-70
2022/09/12 04:56:48;;;;;;;11.35;7.55;;;9.70;1.00;;;9.65;100.00;98443.31;5041172;27;118941;-68
2022/09/12 04:59:20;;;;;;;12.75;7.53;;;9.60;1.00;;;9.53;100.00;98444.03;5041298;27;115570;-69
2022/09/12 05:01:49;;;;;;;10.35;7.38;;;9.60;1.00;;;9.61;100.00;98442.38;5040481;27;130319;-67
2022/09/12 05:04:18;;;;;;;11.90;7.55;;;9.60;1.00;;;9.65;100.00;98443.31;5040727;27;130145;-69
2022/09/12 05:06:47;;;;;;;11.60;7.03;;;9.60;1.00;;;9.64;100.00;98440.94;5026182;27;118196;-70
2022/09/12 05:09:15;;;;;;;11.90;7.35;;;9.60;1.00;;;9.60;100.00;98446.25;5041263;27;115198;-70
2022/09/12 05:11:45;;;;;;;13.95;7.40;;;9.60;1.00;;;9.64;100.00;98452.56;5040846;27;129805;-69
2022/09/12 05:14:14;;;;;;;12.15;6.70;;;9.60;1.00;;;9.66;100.00;98444.91;5041071;27;130084;-69
2022/09/12 05:16:44;;;;;;;11.73;7.63;;;9.60;1.00;;;9.71;100.00;98447.41;5022997;27;118928;-69
2022/09/12 05:19:13;;;;;;;11.18;7.63;;;9.60;1.00;;;9.61;100.00;98447.03;5041245;27;115212;-71
2022/09/12 05:21:41;;;;;;;11.98;8.20;;;9.60;1.00;;;9.76;100.00;98445.66;5040507;27;130515;-69
2022/09/12 05:24:11;;;;;;;13.35;8.20;;;9.70;1.00;;;9.88;100.00;98456.53;5040684;27;129420;-70
2022/09/12 05:26:40;;;;;;;11.90;8.47;;;9.70;1.00;;;9.77;100.00;98445.31;5040508;27;118967;-71
2022/09/12 05:29:09;;;;;;;12.18;8.07;;;9.70;1.00;;;9.71;100.00;98446.63;5041100;27;115864;-69
2022/09/12 05:31:37;;;;;;;11.23;7.55;;;9.70;1.00;;;9.89;100.00;98452.69;5040485;27;130938;-69
2022/09/12 05:34:08;;;;;;;9.10;6.72;;;9.80;1.00;;;9.87;100.00;98455.72;5040370;27;129738;-70
2022/09/12 05:36:38;;;;;;;11.90;7.15;;;9.70;1.00;;;9.86;100.00;98458.78;5040926;27;119638;-70
2022/09/12 05:39:07;;;;;;;10.25;8.18;;;9.70;1.00;;;9.89;100.00;98452.69;5040701;27;114990;-71
2022/09/12 05:41:37;;;;;;;10.55;7.70;;;9.80;1.00;;;9.88;100.00;98461.97;5025328;27;129337;-69
2022/09/12 05:44:07;;;;;;;10.63;7.80;;;9.70;1.00;;;9.83;100.00;98454.00;5042013;27;129429;-68
2022/09/12 05:46:38;;;;;;;9.93;7.97;;;9.70;1.00;;;9.81;100.00;98461.69;5044315;27;118924;-69
2022/09/12 05:49:11;;;;;;;11.52;8.77;;;9.70;1.00;;;9.78;100.00;98463.13;5044433;27;115150;-69
2022/09/12 05:51:42;;;;;;;12.65;9.63;;;9.70;1.00;;;9.82;100.00;98466.00;5043655;27;130069;-70
2022/09/12 05:54:14;;;;;;;11.77;9.00;;;9.70;1.00;;;9.87;100.00;98465.78;5043799;27;129774;-70
2022/09/12 05:56:44;;;;;;;12.52;9.52;;;9.70;1.00;;;9.79;100.00;98472.06;5044308;27;119492;-75
2022/09/12 05:59:15;;;;;;;10.07;7.88;;;9.60;1.00;;;9.51;100.00;98459.06;5043779;27;115078;-68
2022/09/12 06:01:44;;;;;;;10.43;8.65;;;9.60;1.00;;;9.43;100.00;98470.75;5043387;27;130223;-71
2022/09/12 06:04:14;;;;;;;10.40;8.43;;;9.50;1.00;;;9.44;100.00;98469.59;5043944;27;129598;-71
2022/09/12 06:06:45;;;;;;;11.23;8.52;;;9.60;1.00;;;9.52;100.00;98471.44;5029008;27;117793;-69
2022/09/12 06:09:16;;;;;;;12.65;7.82;;;9.60;1.00;;;9.58;100.00;98470.13;5044260;27;116278;-72
2022/09/12 06:11:46;;;;;;;10.65;8.13;;;9.60;1.00;;;9.73;100.00;98476.09;5043321;27;129612;-70
2022/09/12 06:14:17;;;;;;;11.40;9.20;;;9.60;1.00;;;9.77;100.00;98482.44;5043402;27;130084;-73
2022/09/12 06:16:46;;;;;;;8.82;6.85;;;9.60;1.00;;;9.64;100.00;98484.28;5043672;27;119213;-69
2022/09/12 06:19:18;;;;;;;9.85;7.72;;;9.60;1.00;;;9.60;100.00;98488.75;5043598;27;115954;-69
2022/09/12 06:21:48;;;;;;;9.38;6.85;;;9.60;1.00;;;9.51;100.00;98496.97;5043404;27;130570;-71
2022/09/12 06:24:17;;;;;;;10.68;8.35;;;9.60;1.00;;;9.49;100.00;98485.66;5043412;27;129939;-70
2022/09/12 06:26:46;;;;;;;10.13;8.18;;;9.60;1.00;;;9.64;100.00;98490.50;5043486;27;118911;-68
2022/09/12 06:29:15;;;;;;;12.15;8.73;;;9.60;1.00;;;9.73;100.00;98486.94;5043542;27;114998;-71
2022/09/12 06:31:44;;;;;;;11.30;7.70;;;9.70;1.00;;;9.70;100.00;98489.16;5043035;27;129840;-72
2022/09/12 06:34:16;;;;;;;15.05;10.27;;;9.70;99.90;;;9.69;100.00;98487.59;5043231;27;129450;-70
2022/09/12 06:36:48;;;;;;;10.85;8.90;;;9.70;99.90;;;9.84;100.00;98496.25;5028201;27;118591;-70
2022/09/12 06:39:19;;;;;;;10.25;8.18;;;9.70;99.90;;;9.85;100.00;98490.50;5043718;27;115950;-69
2022/09/12 06:41:48;;;;;;;10.10;7.47;;;9.70;99.90;;;9.82;100.00;98495.81;5043070;27;129974;-69
2022/09/12 06:44:19;;;;;;;10.75;8.05;;;9.70;99.90;;;9.82;100.00;98502.00;5042805;27;130356;-70
2022/09/12 06:46:48;;;;;;;9.77;7.30;;;9.80;99.90;;;9.89;100.00;98501.47;5043281;27;119069;-70
2022/09/12 06:49:19;;;;;;;9.95;7.60;;;9.70;99.90;;;9.86;100.00;98508.34;5043487;27;114806;-72
2022/09/12 06:51:48;;;;;;;11.48;8.57;;;9.80;99.90;;;10.00;100.00;98508.09;5042865;27;130757;-70
2022/09/12 06:54:17;;;;;;;12.85;7.85;;;9.80;99.90;;;10.00;100.00;98507.28;5042446;27;129419;-71
2022/09/12 06:56:45;;;;;;;10.32;7.47;;;9.80;99.90;;;9.79;100.00;98508.09;5043325;27;118598;-70
2022/09/12 06:59:14;;;;;;;11.05;7.82;;;9.70;99.90;;;9.75;100.00;98512.56;5053965;27;115345;-71
2022/09/12 07:01:43;;;;;;;8.82;6.68;;;9.70;99.90;;;9.69;100.00;98517.41;5048132;27;128890;-71
2022/09/12 07:04:11;;;;;;;11.52;7.25;;;9.60;99.90;;;9.69;100.00;98520.13;5062800;27;130306;-71
2022/09/12 07:06:43;;;;;;;9.90;7.60;;;9.70;99.90;;;9.68;100.00;98523.94;5062923;27;119177;-71
2022/09/12 07:09:15;;;;;;;11.05;7.57;;;9.70;99.90;;;9.77;100.00;98523.88;5063506;27;115894;-70
2022/09/12 07:11:45;;;;;;;9.70;6.93;;;9.70;99.90;;;9.88;100.00;98532.41;5047807;27;130330;-72
2022/09/12 07:14:15;;;;;;;8.93;6.82;;;9.70;99.90;;;9.88;100.00;98525.06;5063116;27;129870;-71
2022/09/12 07:16:44;;;;;;;12.40;7.20;;;9.70;99.90;;;9.86;100.00;98534.66;5063143;27;119461;-71
2022/09/12 07:19:13;;;;;;;10.60;8.00;;;9.70;99.90;;;9.83;100.00;98535.31;5063178;27;115467;-72
2022/09/12 07:21:43;;;;;;;8.80;6.80;;;9.70;99.90;;;9.70;100.00;98543.34;5062817;27;129678;-72
2022/09/12 07:24:12;;;;;;;10.73;7.15;;;9.70;99.90;;;9.88;100.00;98537.84;5062909;27;130013;-71
2022/09/12 07:26:41;;;;;;;10.40;7.13;;;9.80;99.90;;;9.98;100.00;98532.00;5062985;27;119162;-70
2022/09/12 07:29:16;;;;;;;8.73;6.35;;;9.80;99.90;;;10.07;100.00;98540.88;5063060;27;115257;-73
2022/09/12 07:31:45;;;;;;;7.90;6.35;;;9.90;99.90;;;10.06;100.00;98543.91;5062324;27;130136;-70
2022/09/12 07:34:13;;;;;;;8.15;6.40;;;9.90;99.90;;;9.97;100.00;98554.03;5062537;27;129871;-71
2022/09/12 07:36:43;;;;;;;9.00;6.80;;;9.80;99.90;;;9.99;100.00;98549.09;5062840;27;118765;-69
2022/09/12 07:39:12;;;;;;;9.73;5.93;;;9.80;99.90;;;9.91;100.00;98558.88;5062798;27;114954;-70
2022/09/12 07:41:40;;;;;;;9.75;7.00;;;9.70;99.90;;;9.80;100.00;98563.06;5062772;27;129938;-71
2022/09/12 07:44:09;;;;;;;9.25;6.90;;;9.70;99.90;;;9.81;100.00;98554.59;5062113;27;130274;-71
2022/09/12 07:46:38;;;;;;;8.95;6.85;;;9.80;99.90;;;9.68;100.00;98561.09;5062738;27;118926;-71
2022/09/12 07:49:07;;;;;;;10.10;5.93;;;9.60;99.90;;;9.64;100.00;98554.72;5063033;27;116297;-71
2022/09/12 07:51:36;;;;;;;9.30;6.25;;;9.70;99.90;;;9.83;100.00;98556.97;5062240;27;130416;-71
2022/09/12 07:54:10;;;;;;;8.00;6.18;;;9.70;99.90;;;9.87;100.00;98566.06;5046710;27;129234;-71
2022/09/12 07:56:39;;;;;;;10.45;6.22;;;9.80;99.90;;;9.94;100.00;98563.63;5062527;27;120573;-68
2022/09/12 07:59:08;;;;;;;8.77;6.03;;;9.80;99.90;;;10.03;100.00;98556.19;5062660;27;115849;-72
2022/09/12 08:01:38;;;;;;;7.63;5.72;;;9.90;99.90;;;10.21;100.00;98559.56;5061745;27;129957;-68
2022/09/12 08:04:07;;;;;;;8.32;5.97;;;10.00;99.90;;;10.49;100.00;98566.41;5046813;27;128554;-72
2022/09/12 08:06:36;;;;;;;7.57;5.78;;;10.20;99.90;;;10.31;100.00;98566.50;5061077;27;119149;-71
2022/09/12 08:09:06;;;;;;;8.35;5.47;;;10.00;99.90;;;10.35;100.00;98567.47;5062340;27;114981;-73
2022/09/12 08:11:37;;;;;;;7.43;5.30;;;10.10;99.90;;;10.40;100.00;98569.97;5046677;27;129729;-72
2022/09/12 08:14:05;;;;;;;10.30;8.20;;;10.10;99.90;;;10.53;100.00;98567.31;5064685;27;131589;-70
2022/09/12 08:16:35;;;;;;;9.73;7.45;;;10.20;99.90;;;10.48;100.00;98573.72;5047221;27;118695;-70
2022/09/12 08:19:04;;;;;;;13.07;11.77;;;10.20;99.90;;;10.47;100.00;98574.06;5062332;27;115210;-71
2022/09/12 08:21:34;;;;;;;8.85;7.43;;;10.20;99.90;;;10.16;100.00;98565.22;5061602;27;130518;-68
2022/09/12 08:24:05;;;;;;;21.40;19.15;;;10.00;99.90;;;10.07;100.00;98567.97;5061962;27;130074;-71
2022/09/12 08:26:36;;;;;;;15.25;13.75;;;10.00;99.90;;;10.16;100.00;98564.41;5061435;27;119123;-70
2022/09/12 08:29:05;;;;;;;10.20;8.70;;;10.10;99.90;;;10.21;100.00;98562.28;5061866;27;116698;-69
2022/09/12 08:31:35;;;;;;;9.55;7.43;;;10.10;99.90;;;10.43;100.00;98574.72;5061633;27;129681;-71
2022/09/12 08:34:05;;;;;;;7.95;5.93;;;10.20;99.90;;;10.48;100.00;98564.81;5061447;27;129389;-70
2022/09/12 08:36:35;;;;;;;7.13;5.20;;;10.20;99.90;;;10.60;100.00;98567.56;5061686;27;119529;-70
2022/09/12 08:39:06;;;;;;;7.38;5.28;;;10.40;99.90;;;10.67;100.00;98567.78;5062304;27;115130;-70
2022/09/12 08:41:41;;;;;;;7.68;5.18;;;10.30;99.90;;;10.83;100.00;98564.44;5061540;27;129971;-70
2022/09/12 08:44:26;;;;;;;7.70;5.05;;;10.50;99.90;;;10.70;100.00;98567.13;5061133;27;130071;-70
2022/09/12 08:47:22;;;;;;;9.98;5.32;;;10.40;99.90;;;10.67;100.00;98573.22;5043105;27;118839;-70
2022/09/12 08:50:10;;;;;;;12.02;7.18;;;10.40;99.90;;;10.61;100.00;98571.84;5061476;27;116377;-73
2022/09/12 08:52:49;;;;;;;8.77;5.70;;;10.40;99.90;;;10.58;100.00;98577.94;5061292;27;130373;-73
2022/09/12 08:55:37;;;;;;;10.38;6.78;;;10.40;99.90;;;10.59;100.00;98574.09;5046314;27;129133;-71
2022/09/12 08:58:15;;;;;;;10.35;7.40;;;10.40;99.90;;;10.58;100.00;98569.78;5061742;27;118638;-74
2022/09/12 09:00:55;;;;;;;8.55;6.22;;;10.40;99.90;;;10.76;100.00;98576.66;5061824;27;115594;-73
2022/09/12 09:04:36;;;;;;;7.93;5.70;;;10.50;99.90;;;10.88;100.00;98577.81;5061392;27;129799;-71
2022/09/12 09:07:51;;;;;;;6.50;4.47;;;10.60;99.90;;;11.09;100.00;98577.75;4978606;28;129580;-72
2022/09/12 09:10:28;;;;;;;8.43;5.28;;;10.80;99.90;;;11.09;100.00;98583.94;4978435;28;118568;-73
2022/09/12 09:13:07;;;;;;;8.20;4.88;;;10.80;99.90;;;11.02;100.00;98583.72;4981057;28;115295;-72
2022/09/12 09:15:52;;;;;;;8.48;6.22;;;10.70;99.90;;;11.35;100.00;98584.78;4977873;28;130517;-72
2022/09/12 09:18:25;;;;;;;7.07;5.65;;;10.90;99.90;;;11.34;100.00;98592.13;4980452;28;129964;-71
2022/09/12 09:20:58;;;;;;;7.25;5.28;;;10.90;99.90;;;11.62;100.00;98588.75;4981996;28;119586;-69
2022/09/12 09:23:31;;;;;;;6.97;5.28;;;11.00;99.90;;;11.68;100.00;98590.09;4981622;28;115377;-71
2022/09/12 09:26:07;;;;;;;6.72;4.30;;;11.10;99.90;;;11.80;100.00;98590.09;4984029;28;130017;-74
2022/09/12 09:28:41;;;;;;;7.55;4.50;;;11.30;99.90;;;11.91;100.00;98590.41;4951753;28;128515;-69
2022/09/12 09:31:15;;;;;;;10.02;4.53;;;11.20;99.90;;;11.59;100.00;98584.78;4982419;28;119115;-70
2022/09/12 09:33:46;;;;;;;7.85;5.28;;;11.00;99.90;;;11.47;100.00;98604.59;4981929;28;115657;-70
2022/09/12 09:36:24;;;;;;;6.88;4.78;;;11.00;99.90;;;11.21;100.00;98602.19;4981166;28;130488;-71
2022/09/12 09:39:02;;;;;;;7.28;5.40;;;10.80;99.90;;;11.00;100.00;98607.72;5048562;27;129510;-72
2022/09/12 09:41:47;;;;;;;7.63;5.05;;;10.60;99.90;;;11.08;100.00;98604.09;5049326;27;117553;-70
2022/09/12 09:44:16;;;;;;;7.43;5.05;;;10.70;99.90;;;10.92;100.00;98605.88;5064325;27;116054;-69
2022/09/12 09:46:46;;;;;;;7.05;5.07;;;10.60;99.90;;;10.87;100.00;98603.38;5064015;27;130533;-71
2022/09/12 09:49:17;;;;;;;7.68;5.32;;;10.60;99.90;;;10.95;100.00;98597.06;5063961;27;130383;-70
2022/09/12 09:51:45;;;;;;;7.38;5.78;;;10.70;99.90;;;11.10;100.00;98606.47;5049198;27;119352;-71
2022/09/12 09:54:21;;;;;;;8.20;5.88;;;10.80;99.90;;;10.87;100.00;98608.81;5064692;27;115199;-70
2022/09/12 09:56:50;;;;;;;7.43;5.17;;;10.60;99.90;;;11.08;100.00;98612.25;5049170;27;129794;-70
2022/09/12 09:59:26;;;;;;;7.88;5.60;;;10.80;99.90;;;11.17;100.00;98606.72;5063931;27;130002;-71
2022/09/12 10:02:02;;;;;;;7.70;5.68;;;10.80;99.90;;;11.15;100.00;98601.63;5064222;27;118878;-71
2022/09/12 10:04:34;;;;;;;7.63;4.63;;;10.80;99.90;;;11.23;100.00;98607.28;5046126;27;115189;-68
2022/09/12 10:07:05;;;;;;;8.90;5.38;;;10.80;99.90;;;11.15;100.00;98606.25;5063517;27;130442;-69
2022/09/12 10:09:36;;;;;;;7.97;5.20;;;10.90;99.90;;;11.23;100.00;98604.56;5048641;27;128548;-71
2022/09/12 10:12:26;;;;;;;9.25;6.88;;;10.90;99.90;;;11.56;100.00;98606.41;5032079;27;118000;-71
2022/09/12 10:14:59;;;;;;;7.50;5.45;;;11.20;99.90;;;11.80;100.00;98609.13;5064094;27;115332;-71
2022/09/12 10:17:32;;;;;;;7.68;5.57;;;11.30;99.90;;;11.92;100.00;98612.97;5063525;27;130929;-70
2022/09/12 10:20:02;;;;;;;7.75;4.70;;;11.30;99.90;;;11.95;100.00;98613.13;5063529;27;129950;-71
2022/09/12 10:22:30;;;;;;;5.70;4.20;;;11.40;99.90;;;11.75;100.00;98617.50;5063967;27;118871;-70
2022/09/12 10:25:00;;;;;;;6.55;4.38;;;11.30;99.90;;;11.75;100.00;98614.78;5046272;27;115028;-71
2022/09/12 10:27:32;;;;;;;5.43;3.85;;;11.30;99.90;;;11.72;100.00;98626.34;5048632;27;129848;-72
2022/09/12 10:30:05;;;;;;;6.63;4.85;;;11.20;99.90;;;11.68;100.00;98625.44;5062632;27;130033;-71
2022/09/12 10:32:39;;;;;;;8.40;5.05;;;11.20;99.90;;;11.37;100.00;98626.00;5063877;27;120023;-70
2022/09/12 10:35:18;;;;;;;7.50;4.75;;;11.00;99.90;;;11.25;100.00;98618.59;5063870;27;115676;-70
2022/09/12 10:37:55;;;;;;;7.43;4.88;;;10.90;99.90;;;11.29;100.00;98625.75;5048294;27;129366;-70